createdAt,value
2022-11-29T00:01:09.634Z,38.40
2022-11-29T00:08:50.594Z,38.15
2022-11-29T00:21:53.591Z,38.06
2022-11-29T00:30:31.901Z,38.91
2022-11-29T00:33:54.636Z,38.01
2022-11-29T00:36:47.856Z,37.56
2022-11-29T00:39:23.665Z,37.34
2022-11-29T00:42:00.194Z,37.17
2022-11-29T00:44:42.528Z,36.99
2022-11-29T00:47:16.269Z,36.87
2022-11-29T00:49:54.985Z,38.04
2022-11-29T00:52:34.981Z,37.27
2022-11-29T00:55:07.783Z,37.00
2022-11-29T00:57:43.385Z,36.89
2022-11-29T01:00:18.717Z,36.88
2022-11-29T01:02:50.079Z,36.86
2022-11-29T01:05:22.578Z,36.66
2022-11-29T01:07:55.378Z,36.57
2022-11-29T01:10:48.123Z,36.52
2022-11-29T01:13:20.818Z,36.30
2022-11-29T01:16:01.641Z,36.36
2022-11-29T01:18:31.171Z,36.38
2022-11-29T01:21:12.281Z,36.34
2022-11-29T01:23:43.383Z,36.34
2022-11-29T01:26:19.621Z,36.33
2022-11-29T01:28:55.283Z,36.21
2022-11-29T01:31:38.099Z,36.57
2022-11-29T01:34:09.761Z,36.47
2022-11-29T01:36:41.444Z,36.12
2022-11-29T01:39:11.352Z,35.94
2022-11-29T01:41:44.017Z,35.89
2022-11-29T01:44:15.237Z,36.00
2022-11-29T01:46:54.458Z,35.81
2022-11-29T01:49:31.684Z,36.75
2022-11-29T01:52:12.345Z,36.73
2022-11-29T01:54:52.097Z,36.73
2022-11-29T01:57:23.662Z,36.62
2022-11-29T02:00:05.661Z,36.54
2022-11-29T02:02:47.146Z,35.66
2022-11-29T02:05:22.572Z,35.36
2022-11-29T02:08:00.050Z,35.21
2022-11-29T02:10:59.147Z,35.27
2022-11-29T02:14:07.511Z,35.23
2022-11-29T02:16:58.708Z,35.10
2022-11-29T02:19:49.268Z,35.13
2022-11-29T02:22:44.429Z,34.96
2022-11-29T02:25:47.873Z,34.92
2022-11-29T02:28:30.159Z,34.67
2022-11-29T02:31:20.357Z,34.40
2022-11-29T02:34:04.470Z,34.30
2022-11-29T02:36:39.839Z,34.38
2022-11-29T02:39:19.325Z,34.34
2022-11-29T02:42:37.363Z,34.57
2022-11-29T02:45:11.726Z,34.53
2022-11-29T02:48:11.293Z,34.49
2022-11-29T02:50:55.309Z,34.39
2022-11-29T02:53:35.177Z,34.60
2022-11-29T02:56:11.084Z,34.58
2022-11-29T02:58:52.460Z,34.60
2022-11-29T03:01:35.806Z,34.55
2022-11-29T03:04:19.358Z,34.35
2022-11-29T03:07:03.948Z,34.37
2022-11-29T03:09:46.903Z,34.31
2022-11-29T03:12:43.642Z,34.25
2022-11-29T03:15:36.370Z,34.22
2022-11-29T03:18:38.024Z,34.16
2022-11-29T03:21:20.448Z,33.87
2022-11-29T03:23:57.754Z,33.76
2022-11-29T03:26:41.644Z,33.57
2022-11-29T03:29:23.278Z,33.53
2022-11-29T03:32:11.247Z,33.58
2022-11-29T03:34:59.859Z,33.70
2022-11-29T03:37:39.728Z,33.75
2022-11-29T03:40:22.357Z,33.59
2022-11-29T03:43:06.392Z,33.50
2022-11-29T03:46:02.891Z,33.37
2022-11-29T03:48:47.215Z,33.22
2022-11-29T03:51:31.237Z,33.05
2022-11-29T03:54:15.694Z,32.96
2022-11-29T03:56:47.441Z,32.88
2022-11-29T03:59:48.152Z,32.98
2022-11-29T04:02:46.285Z,32.94
2022-11-29T04:05:22.435Z,32.75
2022-11-29T04:08:31.936Z,32.70
2022-11-29T04:11:18.487Z,32.54
2022-11-29T04:14:10.782Z,32.62
2022-11-29T04:17:15.617Z,32.64
2022-11-29T04:20:07.620Z,32.51
2022-11-29T04:22:45.555Z,32.13
2022-11-29T04:25:34.435Z,32.09
2022-11-29T04:28:29.419Z,31.94
2022-11-29T04:31:31.464Z,32.07
2022-11-29T04:34:22.187Z,31.89
2022-11-29T04:37:04.745Z,31.70
2022-11-29T04:40:00.101Z,31.66
2022-11-29T04:42:54.831Z,31.56
2022-11-29T04:46:04.399Z,31.63
2022-11-29T04:49:03.880Z,31.72
2022-11-29T04:51:51.782Z,31.69
2022-11-29T04:54:47.707Z,31.56
2022-11-29T04:57:47.870Z,31.67
2022-11-29T05:00:31.648Z,31.62
2022-11-29T05:03:33.802Z,31.65
2022-11-29T05:06:12.477Z,31.48
2022-11-29T05:09:18.901Z,31.56
2022-11-29T05:12:35.747Z,31.48
2022-11-29T05:15:15.163Z,31.28
2022-11-29T05:18:35.289Z,31.24
2022-11-29T05:21:45.720Z,31.19
2022-11-29T05:24:29.731Z,31.13
2022-11-29T05:27:19.409Z,30.96
2022-11-29T05:30:21.799Z,31.00
2022-11-29T05:33:11.335Z,31.73
2022-11-29T05:36:19.877Z,32.18
2022-11-29T05:39:42.889Z,31.74
2022-11-29T05:42:39.043Z,31.40
2022-11-29T05:45:36.001Z,31.54
2022-11-29T05:48:46.469Z,31.71
2022-11-29T05:51:34.368Z,31.57
2022-11-29T05:54:49.964Z,31.48
2022-11-29T05:57:35.954Z,31.01
2022-11-29T06:00:12.485Z,30.55
2022-11-29T06:03:07.424Z,30.40
2022-11-29T06:06:06.156Z,30.53
2022-11-29T06:09:07.976Z,30.54
2022-11-29T06:11:50.171Z,30.61
2022-11-29T06:14:47.618Z,30.63
2022-11-29T06:17:43.558Z,30.69
2022-11-29T06:20:40.039Z,30.59
2022-11-29T06:23:43.536Z,30.59
2022-11-29T06:26:47.426Z,30.84
2022-11-29T06:29:36.228Z,30.83
2022-11-29T06:32:35.354Z,30.71
2022-11-29T06:35:18.914Z,31.53
2022-11-29T06:38:03.867Z,31.69
2022-11-29T06:40:35.813Z,31.80
2022-11-29T06:43:09.912Z,31.71
2022-11-29T06:45:46.631Z,31.74
2022-11-29T06:48:32.112Z,31.68
2022-11-29T06:51:36.235Z,30.95
2022-11-29T06:54:36.020Z,30.47
2022-11-29T06:57:34.642Z,30.29
2022-11-29T07:00:19.930Z,30.28
2022-11-29T07:03:00.810Z,30.39
2022-11-29T07:05:38.662Z,30.14
2022-11-29T07:08:20.326Z,30.11
2022-11-29T07:11:06.053Z,30.10
2022-11-29T07:13:38.677Z,30.05
2022-11-29T07:16:34.848Z,30.04
2022-11-29T07:19:20.098Z,30.15
2022-11-29T07:22:44.063Z,30.16
2022-11-29T07:25:38.999Z,30.21
2022-11-29T07:28:35.085Z,30.25
2022-11-29T07:31:04.567Z,30.20
2022-11-29T07:33:43.378Z,30.83
2022-11-29T07:36:47.908Z,30.74
2022-11-29T07:39:40.013Z,30.39
2022-11-29T07:42:34.864Z,30.17
2022-11-29T07:45:42.128Z,30.04
2022-11-29T07:48:23.983Z,30.05
2022-11-29T07:51:02.600Z,29.90
2022-11-29T07:53:42.024Z,29.63
2022-11-29T07:56:18.880Z,29.48
2022-11-29T07:58:50.218Z,29.42
2022-11-29T08:01:20.087Z,29.22
2022-11-29T08:04:00.043Z,29.07
2022-11-29T08:06:39.059Z,29.09
2022-11-29T08:09:22.435Z,29.21
2022-11-29T08:12:17.458Z,29.03
2022-11-29T08:14:50.977Z,28.90
2022-11-29T08:17:21.554Z,28.73
2022-11-29T08:19:51.441Z,28.69
2022-11-29T08:22:20.145Z,28.70
2022-11-29T08:25:00.125Z,28.73
2022-11-29T08:27:36.276Z,28.83
2022-11-29T08:30:10.849Z,28.95
2022-11-29T08:32:40.840Z,28.90
2022-11-29T08:35:12.580Z,28.69
2022-11-29T08:37:44.736Z,28.75
2022-11-29T08:40:18.830Z,28.79
2022-11-29T08:42:51.790Z,28.77
2022-11-29T08:45:26.836Z,28.79
2022-11-29T08:48:06.887Z,28.89
2022-11-29T08:50:39.783Z,28.95
2022-11-29T08:53:31.951Z,28.88
2022-11-29T08:56:23.509Z,28.94
2022-11-29T08:59:07.356Z,29.02
2022-11-29T09:01:40.143Z,29.57
2022-11-29T09:04:20.302Z,29.83
2022-11-29T09:06:52.751Z,29.79
2022-11-29T09:09:44.584Z,29.90
2022-11-29T09:12:38.893Z,29.89
2022-11-29T09:15:19.102Z,29.80
2022-11-29T09:18:12.122Z,29.72
2022-11-29T09:20:47.097Z,29.63
2022-11-29T09:23:22.726Z,29.21
2022-11-29T09:25:52.630Z,29.03
2022-11-29T09:28:32.409Z,28.98
2022-11-29T09:31:18.311Z,29.03
2022-11-29T09:33:51.355Z,28.96
2022-11-29T09:36:28.561Z,28.90
2022-11-29T09:39:05.876Z,29.43
2022-11-29T09:41:47.080Z,29.08
2022-11-29T09:44:40.681Z,29.22
2022-11-29T09:47:39.695Z,29.68
2022-11-29T09:50:44.188Z,30.18
2022-11-29T09:54:04.683Z,30.42
2022-11-29T09:57:10.567Z,30.36
2022-11-29T09:59:49.837Z,30.30
2022-11-29T10:02:40.318Z,30.30
2022-11-29T10:05:16.199Z,30.32
2022-11-29T10:08:03.715Z,30.29
2022-11-29T10:11:24.740Z,29.74
2022-11-29T10:14:22.764Z,30.28
2022-11-29T10:17:35.014Z,30.50
2022-11-29T10:20:19.689Z,29.86
2022-11-29T10:23:04.245Z,29.63
2022-11-29T10:26:03.097Z,30.42
2022-11-29T10:28:38.973Z,30.58
2022-11-29T10:31:57.468Z,30.96
2022-11-29T10:35:03.692Z,30.83
2022-11-29T10:37:39.649Z,30.06
2022-11-29T10:40:39.861Z,29.72
2022-11-29T10:43:11.360Z,29.64
2022-11-29T10:46:00.045Z,29.66
2022-11-29T10:48:38.229Z,29.66
2022-11-29T10:51:19.044Z,29.66
2022-11-29T10:54:01.591Z,29.84
2022-11-29T10:56:39.260Z,30.29
2022-11-29T10:59:37.138Z,30.38
2022-11-29T11:02:22.157Z,30.51
2022-11-29T11:04:54.361Z,30.62
2022-11-29T11:07:40.646Z,30.58
2022-11-29T11:10:38.704Z,30.74
2022-11-29T11:13:23.899Z,30.77
2022-11-29T11:16:44.672Z,30.18
2022-11-29T11:19:44.218Z,30.80
2022-11-29T11:22:34.639Z,30.31
2022-11-29T11:25:42.627Z,30.23
2022-11-29T11:28:24.086Z,30.31
2022-11-29T11:31:11.697Z,30.41
2022-11-29T11:33:53.723Z,29.89
2022-11-29T11:36:42.045Z,30.52
2022-11-29T11:39:23.383Z,30.97
2022-11-29T11:42:15.068Z,31.12
2022-11-29T11:44:55.422Z,31.24
2022-11-29T11:47:38.735Z,31.11
2022-11-29T11:50:19.200Z,30.87
2022-11-29T11:53:14.773Z,30.98
2022-11-29T11:56:18.255Z,31.42
2022-11-29T11:59:01.840Z,31.18
2022-11-29T12:01:47.129Z,30.68
2022-11-29T12:04:38.472Z,30.54
2022-11-29T12:08:06.765Z,30.62
2022-11-29T12:10:42.840Z,30.71
2022-11-29T12:13:36.216Z,30.66
2022-11-29T12:16:23.756Z,30.62
2022-11-29T12:19:35.584Z,30.68
2022-11-29T12:22:22.371Z,31.22
2022-11-29T12:25:06.516Z,31.57
2022-11-29T12:27:40.041Z,30.99
2022-11-29T12:30:18.244Z,32.23
2022-11-29T12:33:22.850Z,31.92
2022-11-29T12:36:48.045Z,31.95
2022-11-29T12:39:36.034Z,31.84
2022-11-29T12:42:47.298Z,31.80
2022-11-29T12:45:44.991Z,31.84
2022-11-29T12:48:39.652Z,31.82
2022-11-29T12:51:46.177Z,31.83
2022-11-29T12:54:45.492Z,31.50
2022-11-29T12:57:52.516Z,32.49
2022-11-29T13:01:02.510Z,31.84
2022-11-29T13:04:18.223Z,31.47
2022-11-29T13:07:12.012Z,31.51
2022-11-29T13:10:19.180Z,31.44
2022-11-29T13:13:24.253Z,31.30
2022-11-29T13:20:38.548Z,31.56
2022-11-29T13:24:07.446Z,31.66
2022-11-29T13:26:49.026Z,31.66
2022-11-29T13:29:47.708Z,32.30
2022-11-29T13:32:46.340Z,32.41
2022-11-29T13:36:08.265Z,33.45
2022-11-29T13:39:19.082Z,32.97
2022-11-29T13:42:19.726Z,32.83
2022-11-29T13:45:10.528Z,32.78
2022-11-29T13:48:36.805Z,32.91
2022-11-29T13:51:37.882Z,32.54
2022-11-29T13:54:36.623Z,32.45
2022-11-29T13:57:15.980Z,32.27
2022-11-29T13:59:51.996Z,32.25
2022-11-29T14:02:48.148Z,32.47
2022-11-29T14:05:30.851Z,33.67
2022-11-29T14:09:02.113Z,33.19
2022-11-29T14:11:35.691Z,33.19
2022-11-29T14:14:08.225Z,33.02
2022-11-29T14:16:45.803Z,33.04
2022-11-29T14:19:33.809Z,33.43
2022-11-29T14:22:03.503Z,33.35
2022-11-29T14:24:39.109Z,33.08
2022-11-29T14:27:13.322Z,33.09
2022-11-29T14:29:59.554Z,33.28
2022-11-29T14:32:58.435Z,33.36
2022-11-29T14:35:48.281Z,33.67
2022-11-29T14:38:30.939Z,33.61
2022-11-29T14:41:23.383Z,33.73
2022-11-29T14:44:05.402Z,33.83
2022-11-29T14:46:34.967Z,33.81
2022-11-29T14:49:05.627Z,33.82
2022-11-29T14:51:35.529Z,33.83
2022-11-29T14:54:17.829Z,33.92
2022-11-29T14:56:48.081Z,34.13
2022-11-29T14:59:53.250Z,34.47
2022-11-29T15:02:38.838Z,34.55
2022-11-29T15:05:41.410Z,34.71
2022-11-29T15:08:22.215Z,34.83
2022-11-29T15:11:06.296Z,34.78
2022-11-29T15:13:38.307Z,34.89
2022-11-29T15:16:23.553Z,35.06
2022-11-29T15:19:31.748Z,35.34
2022-11-29T15:22:15.921Z,35.31
2022-11-29T15:25:24.142Z,35.44
2022-11-29T15:28:03.662Z,35.44
2022-11-29T15:30:37.841Z,35.38
2022-11-29T15:33:23.591Z,35.63
2022-11-29T15:36:07.610Z,35.67
2022-11-29T15:38:48.012Z,35.70
2022-11-29T15:41:35.626Z,35.79
2022-11-29T15:44:07.885Z,35.77
2022-11-29T15:46:51.490Z,35.96
2022-11-29T15:49:34.451Z,36.81
2022-11-29T15:52:20.204Z,37.19
2022-11-29T15:54:59.000Z,37.26
2022-11-29T15:57:44.321Z,37.40
2022-11-29T16:00:21.656Z,37.04
2022-11-29T16:03:03.895Z,37.35
2022-11-29T16:05:40.424Z,37.27
2022-11-29T16:08:20.755Z,36.48
2022-11-29T16:10:55.556Z,36.15
2022-11-29T16:13:42.139Z,36.16
2022-11-29T16:17:06.339Z,36.52
2022-11-29T16:19:39.165Z,36.34
2022-11-29T16:22:15.370Z,36.21
2022-11-29T16:25:02.096Z,36.41
2022-11-29T16:27:38.034Z,36.44
2022-11-29T16:30:08.157Z,36.35
2022-11-29T16:32:44.691Z,36.42
2022-11-29T16:35:21.781Z,36.69
2022-11-29T16:37:51.802Z,37.32
2022-11-29T16:40:32.445Z,37.43
2022-11-29T16:43:04.539Z,37.45
2022-11-29T16:45:36.002Z,37.55
2022-11-29T16:48:32.148Z,37.69
2022-11-29T16:51:30.168Z,37.72
2022-11-29T16:54:28.120Z,38.08
2022-11-29T16:57:04.358Z,37.54
2022-11-29T16:59:35.667Z,37.76
2022-11-29T17:02:08.376Z,37.49
2022-11-29T17:04:39.757Z,37.31
2022-11-29T17:07:15.987Z,37.23
2022-11-29T17:09:50.348Z,36.97
2022-11-29T17:12:20.226Z,36.90
2022-11-29T17:14:50.266Z,36.90
2022-11-29T17:17:20.022Z,36.90
2022-11-29T17:19:49.874Z,36.92
2022-11-29T17:22:19.314Z,36.98
2022-11-29T17:24:48.746Z,36.98
2022-11-29T17:27:19.064Z,37.01
2022-11-29T17:29:48.237Z,36.99
2022-11-29T17:32:21.976Z,37.53
2022-11-29T17:34:56.146Z,37.26
2022-11-29T17:37:29.715Z,37.31
2022-11-29T17:40:00.798Z,37.93
2022-11-29T17:42:31.209Z,37.49
2022-11-29T17:45:00.595Z,37.68
2022-11-29T17:47:30.918Z,37.42
2022-11-29T17:50:03.895Z,37.41
2022-11-29T17:52:34.611Z,37.50
2022-11-29T17:55:07.782Z,37.37
2022-11-29T17:57:42.921Z,37.41
2022-11-29T18:03:14.969Z,37.60
2022-11-29T18:16:42.551Z,38.17
2022-11-29T18:19:24.574Z,37.95
2022-11-29T18:22:11.208Z,37.95
2022-11-29T18:49:19.394Z,39.02
2022-11-29T18:58:23.654Z,38.99
2022-11-29T19:01:05.238Z,40.17
2022-11-29T19:03:42.756Z,39.14
2022-11-29T19:06:16.601Z,38.99
2022-11-29T19:08:54.645Z,38.88
2022-11-29T19:29:21.274Z,39.22
2022-11-29T19:37:52.457Z,38.71
2022-11-29T19:51:32.272Z,39.27
2022-11-29T19:56:28.570Z,39.36
2022-11-29T20:04:11.931Z,38.82
2022-11-29T20:06:52.547Z,38.39
2022-11-29T20:10:36.748Z,38.53
2022-11-29T20:13:37.104Z,38.37
2022-11-29T20:16:58.529Z,38.03
2022-11-29T20:20:09.961Z,38.08
2022-11-29T20:22:43.540Z,37.70
2022-11-29T20:25:18.903Z,37.63
2022-11-29T20:27:48.911Z,37.44
2022-11-29T20:30:51.609Z,37.59
2022-11-29T20:36:47.326Z,38.06
2022-11-29T20:39:30.277Z,37.70
2022-11-29T20:42:36.294Z,38.31
2022-11-29T20:45:11.021Z,37.78
2022-11-29T20:48:00.531Z,37.67
2022-11-29T20:50:39.475Z,37.79
2022-11-29T20:53:32.653Z,38.00
2022-11-29T20:56:03.745Z,37.93
2022-11-29T20:58:32.747Z,37.48
2022-11-29T21:01:08.522Z,37.52
2022-11-29T21:03:40.749Z,37.78
2022-11-29T21:06:14.831Z,37.78
2022-11-29T21:08:52.266Z,37.91
2022-11-29T21:11:23.522Z,37.87
2022-11-29T21:13:52.502Z,37.79
2022-11-29T21:16:31.736Z,37.81
2022-11-29T21:19:03.478Z,37.84
2022-11-29T21:21:46.652Z,38.19
2022-11-29T21:24:38.046Z,38.55
2022-11-29T21:27:15.914Z,38.52
2022-11-29T21:29:51.154Z,38.49
2022-11-29T21:32:24.725Z,38.44
2022-11-29T21:35:01.601Z,38.26
2022-11-29T21:37:34.640Z,38.16
2022-11-29T21:40:06.212Z,38.17
2022-11-29T21:42:37.186Z,38.15
2022-11-29T21:45:14.834Z,38.12
2022-11-29T21:47:47.194Z,38.07
2022-11-29T21:50:18.401Z,38.03
2022-11-29T21:52:52.114Z,38.01
2022-11-29T21:55:31.566Z,38.10
2022-11-29T21:58:03.229Z,38.07
2022-11-29T22:00:37.272Z,38.01
2022-11-29T22:03:09.950Z,38.05
2022-11-29T22:05:40.320Z,37.81
2022-11-29T22:08:10.513Z,37.72
2022-11-29T22:10:41.840Z,37.61
2022-11-29T22:13:12.233Z,37.57
2022-11-29T22:15:42.853Z,37.60
2022-11-29T22:18:12.534Z,37.38
2022-11-29T22:20:44.308Z,37.35
2022-11-29T22:23:14.046Z,37.34
2022-11-29T22:25:43.159Z,37.37
2022-11-29T22:28:11.966Z,37.28
2022-11-29T22:30:41.953Z,37.24
2022-11-29T22:33:13.428Z,37.14
2022-11-29T22:35:45.963Z,37.10
2022-11-29T22:38:14.679Z,37.01
2022-11-29T22:40:44.198Z,36.37
2022-11-29T22:43:14.321Z,36.24
2022-11-29T22:45:44.266Z,35.85
2022-11-29T22:48:16.232Z,35.65
2022-11-29T22:50:47.226Z,35.66
2022-11-29T22:53:16.256Z,35.63
2022-11-29T22:55:47.858Z,35.67
2022-11-29T22:58:18.120Z,35.62
2022-11-29T23:00:47.549Z,35.52
2022-11-29T23:03:18.659Z,35.45
2022-11-29T23:05:52.742Z,35.37
2022-11-29T23:08:22.338Z,36.62
2022-11-29T23:11:02.703Z,35.94
2022-11-29T23:13:35.785Z,35.68
2022-11-29T23:16:08.643Z,35.52
2022-11-29T23:18:43.981Z,35.42
2022-11-29T23:21:23.443Z,35.34
2022-11-29T23:24:02.754Z,35.28
2022-11-29T23:26:41.915Z,35.24
2022-11-29T23:29:16.156Z,35.16
2022-11-29T23:31:47.871Z,35.12
2022-11-29T23:34:21.382Z,35.03
2022-11-29T23:36:53.308Z,34.98
2022-11-29T23:39:24.642Z,34.92
2022-11-29T23:42:07.002Z,34.88
2022-11-29T23:44:38.360Z,34.86
2022-11-29T23:47:07.774Z,34.83
2022-11-29T23:49:36.375Z,34.78
2022-11-29T23:52:08.901Z,34.68
2022-11-29T23:54:40.382Z,34.59
2022-11-29T23:57:10.411Z,34.53
2022-11-29T23:59:46.513Z,34.54
